.
WxDataArchive / Data Records for 2012-04-06
2012-04-05 April 2012 2012-04-07

Data Records for Friday, 06 April 2012

Time	Temp	Chill	HIndex	Humid	Dewpt	 Wind 	HiWind	WindDir	Rain 	Barom 
-----	----	-----	------	-----	-----	------	------	-------	-----	----- 
00:00	37.6	37.6	37.6	74	30.1	0	0	---	0.00	30.116 
00:05	37.3	37.3	37.3	75	30.1	0	0	---	0.00	30.116 
00:10	37.0	37.0	37.0	75	29.8	0	0	---	0.00	30.116 
00:15	36.9	36.9	36.9	76	30.1	0	0	---	0.00	30.120 
00:20	36.6	36.6	36.6	76	29.8	0	0	---	0.00	30.120 
00:25	36.3	36.3	36.3	76	29.5	0	0	---	0.00	30.120 
00:30	36.0	36.0	36.0	77	29.5	0	0	---	0.00	30.122 
00:35	35.8	35.8	35.8	78	29.6	0	0	---	0.00	30.122 
00:40	35.6	35.6	35.6	78	29.4	0	0	---	0.00	30.122 
00:45	35.3	35.3	35.3	79	29.4	0	0	---	0.00	30.123 
00:50	35.0	35.0	35.0	80	29.5	0	0	---	0.00	30.123 
00:55	34.9	34.9	34.9	80	29.4	0	0	---	0.00	30.123 
01:00	34.7	34.7	34.7	81	29.5	0	0	---	0.00	30.119 
01:05	34.6	34.6	34.6	81	29.4	0	0	---	0.00	30.119 
01:10	34.4	34.4	34.4	81	29.2	0	0	---	0.00	30.119 
01:15	34.3	34.3	34.3	81	29.1	0	1	112	0.00	30.124 
01:20	34.3	34.3	34.3	81	29.1	0	0	---	0.00	30.124 
01:25	34.4	34.4	34.4	80	28.9	0	0	---	0.00	30.124 
01:30	34.7	34.7	34.7	79	28.9	0	0	---	0.00	30.126 
01:35	35.0	35.0	35.0	77	28.5	0	1	112	0.00	30.126 
01:40	35.2	35.2	35.2	77	28.7	0	0	---	0.00	30.126 
01:45	35.3	35.3	35.3	76	28.5	0	0	---	0.00	30.129 
01:50	35.3	35.3	35.3	75	28.2	0	0	---	0.00	30.129 
01:55	35.3	35.3	35.3	75	28.2	0	0	---	0.00	30.129 
02:00	35.5	35.5	35.5	74	28.0	0	2	112	0.00	30.130 
02:05	35.5	35.5	35.5	73	27.7	0	2	112	0.00	30.130 
02:10	35.5	35.5	35.5	73	27.7	0	1	112	0.00	30.130 
02:15	35.6	35.6	35.6	72	27.5	0	1	112	0.00	30.128 
02:20	35.6	35.6	35.6	72	27.5	0	1	112	0.00	30.128 
02:25	35.6	35.6	35.6	71	27.1	0	3	112	0.00	30.128 
02:30	35.5	35.5	35.5	71	27.0	0	1	112	0.00	30.130 
02:35	35.5	35.5	35.5	71	27.0	0	1	112	0.00	30.130 
02:40	35.5	35.5	35.5	71	27.0	0	1	112	0.00	30.130 
02:45	35.5	35.5	35.5	70	26.7	0	2	112	0.00	30.133 
02:50	35.5	35.5	35.5	70	26.7	0	2	112	0.00	30.133 
02:55	35.5	35.5	35.5	69	26.4	0	3	112	0.00	30.133 
03:00	35.5	35.5	35.5	69	26.4	0	1	112	0.00	30.137 
03:05	35.5	35.5	35.5	68	26.0	0	2	112	0.00	30.137 
03:10	35.5	35.5	35.5	68	26.0	0	2	112	0.00	30.137 
03:15	35.3	35.3	35.3	68	25.8	0	1	112	0.00	30.142 
03:20	35.2	35.2	35.2	68	25.7	0	1	112	0.00	30.142 
03:25	35.2	35.2	35.2	68	25.7	0	1	112	0.00	30.142 
03:30	35.0	35.0	35.0	68	25.5	0	3	90	0.00	30.143 
03:35	34.9	34.9	34.9	68	25.4	0	2	90	0.00	30.143 
03:40	34.7	34.7	34.7	68	25.2	0	2	68	0.00	30.143 
03:45	34.6	34.6	34.6	68	25.1	0	2	68	0.00	30.143 
03:50	34.4	34.4	34.4	68	24.9	0	1	68	0.00	30.143 
03:55	34.4	34.4	34.4	68	24.9	0	2	68	0.00	30.143 
04:00	34.3	34.3	34.3	69	25.2	0	2	90	0.00	30.144 
04:05	34.1	34.1	34.1	69	25.0	0	0	---	0.00	30.144 
04:10	34.0	34.0	34.0	69	24.9	0	1	90	0.00	30.144 
04:15	33.8	33.8	33.8	69	24.7	0	2	90	0.00	30.151 
04:20	33.8	33.8	33.8	69	24.7	0	1	90	0.00	30.151 
04:25	33.7	33.7	33.7	69	24.6	0	2	90	0.00	30.151 
04:30	33.7	33.7	33.7	69	24.6	0	1	90	0.00	30.152 
04:35	33.5	33.5	33.5	70	24.8	0	3	90	0.00	30.152 
04:40	33.4	33.4	33.4	70	24.7	0	0	---	0.00	30.152 
04:45	33.2	33.2	33.2	71	24.8	0	2	90	0.00	30.158 
04:50	32.9	32.9	32.9	71	24.5	0	0	---	0.00	30.158 
04:55	32.8	32.8	32.8	72	24.8	0	3	90	0.00	30.158 
05:00	32.8	32.8	32.8	72	24.8	0	2	90	0.00	30.164 
05:05	32.8	32.8	32.8	72	24.8	0	2	90	0.00	30.164 
05:10	32.7	32.7	32.7	72	24.7	0	1	90	0.00	30.164 
05:15	32.5	32.5	32.5	72	24.5	0	1	90	0.00	30.169 
05:20	32.5	32.5	32.5	72	24.5	0	0	---	0.00	30.169 
05:25	32.4	32.4	32.4	72	24.4	0	1	90	0.00	30.169 
05:30	32.4	32.4	32.4	73	24.7	0	0	---	0.00	30.175 
05:35	32.2	32.2	32.2	73	24.5	0	1	90	0.00	30.175 
05:40	32.1	32.1	32.1	73	24.4	0	0	---	0.00	30.175 
05:45	31.9	31.9	31.9	73	24.2	0	1	90	0.00	30.178 
05:50	31.9	31.9	31.9	73	24.2	0	1	90	0.00	30.178 
05:55	31.8	31.8	31.8	73	24.1	0	1	90	0.00	30.178 
06:00	31.8	31.8	31.8	73	24.1	0	2	90	0.00	30.182 
06:05	31.6	31.6	31.6	73	24.0	0	2	90	0.00	30.182 
06:10	31.5	31.5	31.5	74	24.2	0	0	---	0.00	30.182 
06:15	31.3	31.3	31.3	74	24.0	0	1	90	0.00	30.186 
06:20	31.3	31.3	31.3	74	24.0	0	1	90	0.00	30.186 
06:25	31.2	31.2	31.2	75	24.2	0	4	45	0.00	30.186 
06:30	31.2	31.2	31.2	75	24.2	0	1	45	0.00	30.189 
06:35	31.2	31.2	31.2	75	24.2	0	0	---	0.00	30.189 
06:40	31.2	31.2	31.2	75	24.2	0	3	135	0.00	30.189 
06:45	31.2	31.2	31.2	75	24.2	0	1	135	0.00	30.189 
06:50	31.2	31.2	31.2	74	23.9	0	2	135	0.00	30.189 
06:55	31.3	31.3	31.3	74	24.0	0	3	112	0.00	30.189 
07:00	31.3	31.3	31.3	74	24.0	0	1	112	0.00	30.196 
07:05	31.2	31.2	31.2	74	23.9	0	1	112	0.00	30.196 
07:10	31.2	31.2	31.2	74	23.9	0	0	---	0.00	30.196 
07:15	31.0	31.0	31.0	74	23.7	0	1	112	0.00	30.201 
07:20	31.0	31.0	31.0	74	23.7	0	1	112	0.00	30.201 
07:25	31.0	31.0	31.0	74	23.7	0	2	112	0.00	30.201 
07:30	31.0	31.0	31.0	74	23.7	0	1	112	0.00	30.211 
07:35	31.0	31.0	31.0	74	23.7	0	1	112	0.00	30.211 
07:40	31.2	31.2	31.2	73	23.6	0	1	112	0.00	30.211 
07:45	31.3	31.3	31.3	73	23.7	0	1	112	0.00	30.218 
07:50	31.5	31.5	31.5	73	23.9	0	1	112	0.00	30.218 
07:55	31.6	31.6	31.6	73	24.0	0	3	112	0.00	30.218 
08:00	31.9	31.9	31.9	72	23.9	0	1	112	0.00	30.227 
08:05	32.4	32.4	32.4	71	24.1	0	2	112	0.00	30.227 
08:10	32.8	32.8	32.8	69	23.8	0	2	112	0.00	30.227 
08:15	33.4	33.4	33.4	68	24.0	1	3	112	0.00	30.237 
08:20	34.0	34.0	34.0	67	24.2	0	2	112	0.00	30.237 
08:25	34.7	34.7	34.7	65	24.2	1	3	112	0.00	30.237 
08:30	35.5	35.5	35.5	63	24.2	1	3	112	0.00	30.245 
08:35	35.9	35.9	35.9	62	24.2	0	2	112	0.00	30.245 
08:40	36.5	36.5	36.5	62	24.7	0	3	112	0.00	30.245 
08:45	36.8	36.8	36.8	61	24.6	0	3	0	0.00	30.248 
08:50	37.0	37.0	37.0	61	24.8	1	4	112	0.00	30.248 
08:55	37.5	37.5	37.5	61	25.3	1	4	112	0.00	30.248 
09:00	37.8	37.8	37.8	61	25.6	2	4	112	0.00	30.257 
09:05	37.9	37.9	37.9	62	26.1	1	4	90	0.00	30.257 
09:10	38.0	38.0	38.0	62	26.2	1	5	112	0.00	30.257 
09:15	38.3	38.3	38.3	62	26.4	0	2	112	0.00	30.261 
09:20	38.8	38.8	38.8	62	26.9	0	2	45	0.00	30.261 
09:25	39.5	39.5	39.5	62	27.6	0	3	45	0.00	30.261 
09:30	39.9	39.9	39.9	61	27.6	1	5	45	0.00	30.263 
09:35	40.3	40.3	40.3	61	27.9	1	4	135	0.00	30.263 
09:40	40.8	40.8	40.8	61	28.4	1	4	112	0.00	30.263 
09:45	41.1	41.1	41.1	60	28.3	0	2	135	0.00	30.268 
09:50	41.3	41.3	41.3	60	28.5	2	5	90	0.00	30.268 
09:55	41.6	41.6	41.6	59	28.3	2	5	90	0.00	30.268 
10:00	41.9	41.9	41.9	59	28.6	2	5	112	0.00	30.272 
10:05	42.5	42.5	42.5	60	29.6	0	4	90	0.00	30.272 
10:10	43.2	43.2	43.2	56	28.6	1	6	112	0.00	30.272 
10:15	43.8	43.8	43.8	57	29.6	1	4	90	0.00	30.275 
10:20	44.2	44.2	44.2	54	28.6	2	6	90	0.00	30.275 
10:25	44.8	44.8	44.8	54	29.2	1	4	90	0.00	30.275 
10:30	45.4	45.4	45.4	53	29.3	1	5	90	0.00	30.281 
10:35	45.7	45.7	45.7	54	30.0	2	6	112	0.00	30.281 
10:40	46.1	46.1	46.1	52	29.5	2	6	90	0.00	30.281 
10:45	46.4	46.4	46.4	49	28.3	1	4	112	0.00	30.281 
10:50	47.1	47.1	47.1	53	30.9	0	3	112	0.00	30.281 
10:55	47.6	47.6	47.6	47	28.4	2	6	112	0.00	30.281 
11:00	47.9	47.9	47.9	50	30.2	1	3	90	0.00	30.282 
11:05	48.0	48.0	48.0	46	28.2	3	9	112	0.00	30.282 
11:10	48.5	48.5	48.5	51	31.2	1	6	0	0.00	30.282 
11:15	48.3	46.9	48.3	43	26.9	4	10	112	0.00	30.285 
11:20	48.5	48.5	48.5	43	27.0	2	12	112	0.00	30.285 
11:25	48.5	48.5	48.5	43	27.0	3	12	90	0.00	30.285 
11:30	48.6	47.3	48.6	43	27.1	4	9	112	0.00	30.286 
11:35	48.9	48.9	48.9	43	27.4	3	7	90	0.00	30.286 
11:40	49.1	47.8	49.1	43	27.6	4	6	112	0.00	30.286 
11:45	49.4	49.4	49.4	44	28.4	2	6	90	0.00	30.287 
11:50	49.4	48.2	49.4	43	27.9	4	9	112	0.00	30.287 
11:55	49.8	49.8	49.8	43	28.2	2	7	112	0.00	30.287 
12:00	49.9	49.9	49.9	43	28.3	3	6	90	0.00	30.283 
12:05	49.6	47.7	49.6	39	25.7	5	11	90	0.00	30.283 
12:10	49.6	49.6	49.6	39	25.7	3	12	90	0.00	30.283 
12:15	50.2	50.2	50.2	44	29.1	1	7	45	0.00	30.286 
12:20	50.7	50.7	50.7	40	27.3	2	10	112	0.00	30.286 
12:25	51.0	51.0	51.0	43	29.3	3	6	90	0.00	30.286 
12:30	51.6	51.6	51.6	43	29.8	2	7	90	0.00	30.284 
12:35	52.2	52.2	52.2	40	28.6	1	5	90	0.00	30.284 
12:40	52.3	52.3	52.3	40	28.7	1	4	338	0.00	30.284 
12:45	52.3	52.3	52.3	40	28.7	1	3	112	0.00	30.283 
12:50	52.6	52.6	52.6	39	28.4	2	5	112	0.00	30.283 
12:55	52.8	52.8	52.8	38	27.9	1	4	135	0.00	30.283 
13:00	53.1	53.1	53.1	39	28.8	1	5	45	0.00	30.282 
13:05	53.1	53.1	53.1	40	29.4	2	6	112	0.00	30.282 
13:10	53.5	53.5	53.5	46	33.2	1	4	90	0.00	30.282 
13:15	53.6	53.6	53.6	39	29.3	0	3	90	0.00	30.274 
13:20	54.1	54.1	54.1	39	29.7	2	6	90	0.00	30.274 
13:25	53.9	53.9	53.9	39	29.5	1	5	68	0.00	30.274 
13:30	53.9	53.9	53.9	37	28.2	1	3	112	0.00	30.270 
13:35	53.8	53.8	53.8	38	28.8	0	3	0	0.00	30.270 
13:40	54.1	54.1	54.1	35	27.1	1	4	112	0.00	30.270 
13:45	54.1	54.1	54.1	37	28.4	2	6	112	0.00	30.270 
13:50	53.9	53.9	53.9	43	31.9	2	7	112	0.00	30.270 
13:55	53.8	53.8	53.8	39	29.4	2	6	112	0.00	30.270 
14:00	54.2	54.2	54.2	43	32.2	1	6	112	0.00	30.265 
14:05	54.5	54.5	54.5	40	30.7	2	11	90	0.00	30.265 
14:10	54.2	54.2	54.2	37	28.5	2	6	90	0.00	30.265 
14:15	54.4	54.4	54.4	38	29.3	1	4	90	0.00	30.256 
14:20	54.8	54.8	54.8	37	29.0	1	3	315	0.00	30.256 
14:25	55.4	55.4	55.4	38	30.2	1	5	90	0.00	30.256 
14:30	55.7	55.7	55.7	36	29.2	0	3	22	0.00	30.253 
14:35	55.9	55.9	55.9	36	29.3	1	6	90	0.00	30.253 
14:40	56.0	56.0	56.0	32	26.6	1	4	112	0.00	30.253 
14:45	56.0	56.0	56.0	33	27.3	1	5	270	0.00	30.251 
14:50	56.0	56.0	56.0	38	30.8	2	7	112	0.00	30.251 
14:55	55.7	55.7	55.7	30	24.8	2	6	112	0.00	30.251 
15:00	55.9	55.9	55.9	32	26.5	0	3	112	0.00	30.250 
15:05	56.3	56.3	56.3	38	31.0	2	6	112	0.00	30.250 
15:10	56.3	56.3	56.3	32	26.8	2	5	112	0.00	30.250 
15:15	56.2	56.2	56.2	33	27.5	1	6	68	0.00	30.251 
15:20	56.5	56.5	56.5	37	30.5	1	4	135	0.00	30.251 
15:25	56.9	56.9	56.9	31	26.6	2	5	90	0.00	30.251 
15:30	56.9	56.9	56.9	33	28.1	1	4	112	0.00	30.243 
15:35	57.3	57.3	57.3	33	28.4	0	2	112	0.00	30.243 
15:40	58.0	58.0	58.0	35	30.5	1	5	112	0.00	30.243 
15:45	57.3	57.3	57.3	31	26.9	3	9	112	0.00	30.240 
15:50	57.2	57.2	57.2	31	26.8	1	3	112	0.00	30.240 
15:55	56.9	56.9	56.9	31	26.6	4	7	112	0.00	30.240 
16:00	56.9	56.9	56.9	30	25.8	1	3	112	0.00	30.237 
16:05	57.0	57.0	57.0	33	28.2	0	2	292	0.00	30.237 
16:10	57.2	57.2	57.2	31	26.8	1	3	112	0.00	30.237 
16:15	57.3	57.3	57.3	27	23.6	0	2	90	0.00	30.235 
16:20	57.6	57.6	57.6	31	27.2	1	7	90	0.00	30.235 
16:25	57.8	57.8	57.8	28	24.9	1	3	158	0.00	30.235 
16:30	57.6	57.6	57.6	29	25.6	0	2	68	0.00	30.235 
16:35	57.6	57.6	57.6	29	25.6	1	4	112	0.00	30.235 
16:40	57.8	57.8	57.8	31	27.4	0	1	112	0.00	30.235 
16:45	57.5	57.5	57.5	29	25.5	1	3	112	0.00	30.236 
16:50	57.5	57.5	57.5	30	26.3	1	5	112	0.00	30.236 
16:55	57.5	57.5	57.5	30	26.3	1	4	90	0.00	30.236 
17:00	57.5	57.5	57.5	28	24.7	0	2	315	0.00	30.235 
17:05	57.6	57.6	57.6	30	26.4	1	4	90	0.00	30.235 
17:10	57.6	57.6	57.6	29	25.6	0	2	90	0.00	30.235 
17:15	57.5	57.5	57.5	30	26.3	1	3	68	0.00	30.236 
17:20	57.5	57.5	57.5	31	27.1	0	2	0	0.00	30.236 
17:25	57.6	57.6	57.6	31	27.2	0	2	0	0.00	30.236 
17:30	57.6	57.6	57.6	29	25.6	0	2	68	0.00	30.235 
17:35	57.6	57.6	57.6	28	24.7	0	1	45	0.00	30.235 
17:40	57.8	57.8	57.8	28	24.9	0	3	90	0.00	30.235 
17:45	57.8	57.8	57.8	27	24.0	1	3	90	0.00	30.233 
17:50	57.8	57.8	57.8	28	24.9	0	2	90	0.00	30.233 
17:55	57.8	57.8	57.8	28	24.9	0	1	90	0.00	30.233 
18:00	57.8	57.8	57.8	28	24.9	0	2	90	0.00	30.233 
18:05	57.5	57.5	57.5	28	24.7	1	5	112	0.00	30.233 
18:10	57.3	57.3	57.3	28	24.5	0	2	112	0.00	30.233 
18:15	57.0	57.0	57.0	30	25.9	0	3	68	0.00	30.230 
18:20	56.9	56.9	56.9	28	24.1	1	4	90	0.00	30.230 
18:25	56.7	56.7	56.7	27	23.1	1	4	90	0.00	30.230 
18:30	56.6	56.6	56.6	27	23.0	1	3	135	0.00	30.233 
18:35	56.5	56.5	56.5	29	24.6	1	5	112	0.00	30.233 
18:40	56.5	56.5	56.5	28	23.8	1	3	90	0.00	30.233 
18:45	56.3	56.3	56.3	28	23.6	0	3	90	0.00	30.232 
18:50	56.2	56.2	56.2	28	23.5	0	2	90	0.00	30.232 
18:55	56.2	56.2	56.2	29	24.4	0	1	90	0.00	30.232 
19:00	56.0	56.0	56.0	31	25.8	0	1	90	0.00	30.231 
19:05	55.9	55.9	55.9	31	25.7	0	4	90	0.00	30.231 
19:10	55.7	55.7	55.7	28	23.1	1	3	90	0.00	30.231 
19:15	55.6	55.6	55.6	29	23.9	0	2	90	0.00	30.224 
19:20	55.4	55.4	55.4	29	23.7	0	2	90	0.00	30.224 
19:25	55.3	55.3	55.3	28	22.8	0	4	90	0.00	30.224 
19:30	55.1	55.1	55.1	30	24.2	0	2	90	0.00	30.225 
19:35	54.8	54.8	54.8	31	24.8	0	1	90	0.00	30.225 
19:40	54.5	54.5	54.5	30	23.7	0	1	90	0.00	30.225 
19:45	54.2	54.2	54.2	30	23.5	0	1	90	0.00	30.225 
19:50	54.1	54.1	54.1	33	25.6	0	1	90	0.00	30.225 
19:55	53.6	53.6	53.6	33	25.2	0	0	---	0.00	30.225 
20:00	53.3	53.3	53.3	33	24.9	0	0	---	0.00	30.228 
20:05	52.9	52.9	52.9	34	25.3	0	0	---	0.00	30.228 
20:10	52.3	52.3	52.3	35	25.5	0	0	---	0.00	30.228 
20:15	51.7	51.7	51.7	35	24.9	0	0	---	0.00	30.227 
20:20	51.3	51.3	51.3	36	25.3	0	0	---	0.00	30.227 
20:25	50.7	50.7	50.7	37	25.4	0	0	---	0.00	30.227 
20:30	50.1	50.1	50.1	39	26.1	0	0	---	0.00	30.230 
20:35	49.6	49.6	49.6	41	26.9	0	0	---	0.00	30.230 
20:40	49.1	49.1	49.1	43	27.6	0	0	---	0.00	30.230 
20:45	48.6	48.6	48.6	43	27.1	0	0	---	0.00	30.235 
20:50	48.0	48.0	48.0	44	27.1	0	0	---	0.00	30.235 
20:55	47.6	47.6	47.6	45	27.3	0	0	---	0.00	30.235 
21:00	47.0	47.0	47.0	46	27.3	0	0	---	0.00	30.242 
21:05	46.5	46.5	46.5	46	26.8	0	0	---	0.00	30.242 
21:10	46.1	46.1	46.1	46	26.5	0	0	---	0.00	30.242 
21:15	45.7	45.7	45.7	47	26.6	0	0	---	0.00	30.243 
21:20	45.2	45.2	45.2	50	27.7	0	0	---	0.00	30.243 
21:25	44.8	44.8	44.8	51	27.8	0	0	---	0.00	30.243 
21:30	44.5	44.5	44.5	52	28.0	0	0	---	0.00	30.248 
21:35	44.1	44.1	44.1	53	28.1	0	0	---	0.00	30.248 
21:40	43.6	43.6	43.6	53	27.6	0	0	---	0.00	30.248 
21:45	43.3	43.3	43.3	53	27.3	0	0	---	0.00	30.253 
21:50	43.1	43.1	43.1	55	28.0	0	0	---	0.00	30.253 
21:55	42.8	42.8	42.8	56	28.2	0	0	---	0.00	30.253 
22:00	42.5	42.5	42.5	57	28.4	0	0	---	0.00	30.256 
22:05	42.2	42.2	42.2	58	28.5	0	0	---	0.00	30.256 
22:10	41.9	41.9	41.9	60	29.0	0	0	---	0.00	30.256 
22:15	41.6	41.6	41.6	60	28.8	0	0	---	0.00	30.252 
22:20	41.5	41.5	41.5	61	29.1	0	0	---	0.00	30.252 
22:25	41.1	41.1	41.1	62	29.1	0	0	---	0.00	30.252 
22:30	40.9	40.9	40.9	63	29.3	0	0	---	0.00	30.255 
22:35	40.6	40.6	40.6	64	29.4	0	0	---	0.00	30.255 
22:40	40.5	40.5	40.5	65	29.7	0	0	---	0.00	30.255 
22:45	40.2	40.2	40.2	65	29.4	0	0	---	0.00	30.255 
22:50	40.1	40.1	40.1	65	29.3	0	0	---	0.00	30.255 
22:55	39.8	39.8	39.8	65	29.0	0	0	---	0.00	30.255 
23:00	39.6	39.6	39.6	67	29.6	0	0	---	0.00	30.255 
23:05	39.5	39.5	39.5	68	29.8	0	0	---	0.00	30.255 
23:10	39.2	39.2	39.2	68	29.5	0	0	---	0.00	30.255 
23:15	39.1	39.1	39.1	68	29.4	0	0	---	0.00	30.255 
23:20	38.9	38.9	38.9	69	29.6	0	0	---	0.00	30.255 
23:25	38.6	38.6	38.6	69	29.3	0	0	---	0.00	30.255 
23:30	38.5	38.5	38.5	70	29.6	0	0	---	0.00	30.255 
23:35	38.2	38.2	38.2	70	29.3	0	0	---	0.00	30.255 
23:40	38.0	38.0	38.0	71	29.4	0	0	---	0.00	30.255 
23:45	37.9	37.9	37.9	71	29.4	0	0	---	0.00	30.255 
23:50	37.8	37.8	37.8	71	29.3	0	0	---	0.00	30.255 
23:55	37.5	37.5	37.5	72	29.3	0	0	---	0.00	30.255 

CoCoRaHS
IN-AL-39
A2 Web Hosting
Creative Commons License
GoDaddy
search engine by freefind advanced

loaded 2018-11-15 16:46:06 • last modified 2010-11-18 10:43:29
Privacy PolicyDisclaimer
• wx.awcolley.com is powered by PmWiki v.2002016 •
• all content (unless otherwise noted) © 2018 A W Colley